createdAt,value
2022-11-29T00:00:09.087Z,4.15
2022-11-29T00:02:10.889Z,5.05
2022-11-29T00:04:12.698Z,5.93
2022-11-29T00:06:16.496Z,5.97
2022-11-29T00:08:19.219Z,5.50
2022-11-29T00:10:20.820Z,4.97
2022-11-29T00:12:22.522Z,4.80
2022-11-29T00:14:25.669Z,6.28
2022-11-29T00:16:27.359Z,4.50
2022-11-29T00:18:28.971Z,4.43
2022-11-29T00:20:31.267Z,5.13
2022-11-29T00:22:32.865Z,5.28
2022-11-29T00:24:34.703Z,5.38
2022-11-29T00:26:37.308Z,3.80
2022-11-29T00:28:38.879Z,4.90
2022-11-29T00:30:40.611Z,4.95
2022-11-29T00:32:42.228Z,4.57
2022-11-29T00:34:44.328Z,4.05
2022-11-29T00:36:46.135Z,5.25
2022-11-29T00:38:47.788Z,4.20
2022-11-29T00:40:52.748Z,4.40
2022-11-29T00:42:54.402Z,3.78
2022-11-29T00:44:56.047Z,5.78
2022-11-29T00:46:57.679Z,4.50
2022-11-29T00:48:59.266Z,4.60
2022-11-29T00:51:01.221Z,4.72
2022-11-29T00:53:02.880Z,4.80
2022-11-29T00:55:04.816Z,4.05
2022-11-29T00:57:06.376Z,5.47
2022-11-29T00:59:08.018Z,4.70
2022-11-29T01:01:10.662Z,4.35
2022-11-29T01:03:12.300Z,4.20
2022-11-29T01:05:13.988Z,3.80
2022-11-29T01:07:15.661Z,4.05
2022-11-29T01:09:17.734Z,4.97
2022-11-29T01:11:24.817Z,4.53
2022-11-29T01:13:26.402Z,4.20
2022-11-29T01:15:28.550Z,3.65
2022-11-29T01:17:30.211Z,3.90
2022-11-29T01:19:31.838Z,3.80
2022-11-29T01:21:33.929Z,3.70
2022-11-29T01:23:36.483Z,4.30
2022-11-29T01:25:38.151Z,4.93
2022-11-29T01:27:39.961Z,4.25
2022-11-29T01:29:41.729Z,4.60
2022-11-29T01:31:43.383Z,4.47
2022-11-29T01:33:45.048Z,5.57
2022-11-29T01:35:54.936Z,6.45
2022-11-29T01:37:56.628Z,8.60
2022-11-29T01:39:58.258Z,6.70
2022-11-29T01:42:00.802Z,7.28
2022-11-29T01:44:11.697Z,6.57
2022-11-29T01:46:13.337Z,6.20
2022-11-29T01:48:15.061Z,6.75
2022-11-29T01:50:17.127Z,6.65
2022-11-29T01:52:25.161Z,5.93
2022-11-29T01:54:27.362Z,6.70
2022-11-29T01:56:30.458Z,7.13
2022-11-29T01:58:32.696Z,6.55
2022-11-29T02:00:34.348Z,4.88
2022-11-29T02:02:58.540Z,4.93
2022-11-29T02:05:01.411Z,5.35
2022-11-29T02:07:03.699Z,5.70
2022-11-29T02:09:05.846Z,5.75
2022-11-29T02:11:10.606Z,5.07
2022-11-29T02:13:26.146Z,5.00
2022-11-29T02:15:43.725Z,4.18
2022-11-29T02:18:05.983Z,4.88
2022-11-29T02:20:16.689Z,5.22
2022-11-29T02:22:29.676Z,4.10
2022-11-29T02:24:40.251Z,4.82
2022-11-29T02:27:06.264Z,4.78
2022-11-29T02:30:01.926Z,4.32
2022-11-29T02:32:18.133Z,5.97
2022-11-29T02:34:51.686Z,6.68
2022-11-29T02:37:11.397Z,7.18
2022-11-29T02:39:16.640Z,5.38
2022-11-29T02:41:55.237Z,5.60
2022-11-29T02:44:42.678Z,6.10
2022-11-29T02:47:08.736Z,5.15
2022-11-29T02:49:50.349Z,5.35
2022-11-29T02:52:03.762Z,5.07
2022-11-29T02:54:32.283Z,5.63
2022-11-29T02:56:56.698Z,5.10
2022-11-29T02:59:14.394Z,5.43
2022-11-29T03:01:18.727Z,5.00
2022-11-29T03:03:28.140Z,5.75
2022-11-29T03:05:39.014Z,5.05
2022-11-29T03:07:46.845Z,6.20
2022-11-29T03:10:09.571Z,5.57
2022-11-29T03:12:17.690Z,4.22
2022-11-29T03:14:26.118Z,4.53
2022-11-29T03:16:45.883Z,4.65
2022-11-29T03:19:23.934Z,4.65
2022-11-29T03:21:31.283Z,8.48
2022-11-29T03:23:51.460Z,4.63
2022-11-29T03:25:56.120Z,4.93
2022-11-29T03:28:13.921Z,3.63
2022-11-29T03:30:18.683Z,5.50
2022-11-29T03:32:54.260Z,5.35
2022-11-29T03:35:10.526Z,4.30
2022-11-29T03:37:20.604Z,4.75
2022-11-29T03:39:49.976Z,5.68
2022-11-29T03:42:00.686Z,4.55
2022-11-29T03:44:11.563Z,4.53
2022-11-29T03:46:21.843Z,4.78
2022-11-29T03:48:31.587Z,4.40
2022-11-29T03:50:40.110Z,3.85
2022-11-29T03:52:52.599Z,4.03
2022-11-29T03:55:01.884Z,5.88
2022-11-29T03:57:03.881Z,4.40
2022-11-29T03:59:29.599Z,6.75
2022-11-29T04:02:01.203Z,3.75
2022-11-29T04:04:05.657Z,3.30
2022-11-29T04:06:21.856Z,3.20
2022-11-29T04:09:01.135Z,3.85
2022-11-29T04:11:21.162Z,3.72
2022-11-29T04:13:37.626Z,3.55
2022-11-29T04:15:57.331Z,4.13
2022-11-29T04:18:44.288Z,4.85
2022-11-29T04:21:01.673Z,3.78
2022-11-29T04:23:30.704Z,4.57
2022-11-29T04:25:55.733Z,3.90
2022-11-29T04:28:09.479Z,3.58
2022-11-29T04:30:24.386Z,4.07
2022-11-29T04:32:31.974Z,4.65
2022-11-29T04:34:57.492Z,5.35
2022-11-29T04:37:29.626Z,4.03
2022-11-29T04:39:46.304Z,4.55
2022-11-29T04:42:20.188Z,4.00
2022-11-29T04:44:31.895Z,3.97
2022-11-29T04:46:39.748Z,4.82
2022-11-29T04:49:00.404Z,5.53
2022-11-29T04:51:39.751Z,3.60
2022-11-29T04:54:07.892Z,4.53
2022-11-29T04:56:33.361Z,3.85
2022-11-29T04:58:42.351Z,3.78
2022-11-29T05:01:07.163Z,4.82
2022-11-29T05:03:17.508Z,4.82
2022-11-29T05:05:42.421Z,5.38
2022-11-29T05:07:53.182Z,7.00
2022-11-29T05:10:07.086Z,6.25
2022-11-29T05:12:28.288Z,6.95
2022-11-29T05:14:39.172Z,6.07
2022-11-29T05:16:55.992Z,7.10
2022-11-29T05:19:04.459Z,6.32
2022-11-29T05:21:43.032Z,5.82
2022-11-29T05:23:50.559Z,8.27
2022-11-29T05:26:01.237Z,7.03
2022-11-29T05:28:33.717Z,7.57
2022-11-29T05:30:47.496Z,5.55
2022-11-29T05:33:11.648Z,7.80
2022-11-29T05:35:46.752Z,8.20
2022-11-29T05:40:04.220Z,6.78
2022-11-29T05:42:25.122Z,7.03
2022-11-29T05:44:38.151Z,8.07
2022-11-29T05:46:54.788Z,19.60
2022-11-29T05:49:05.424Z,9.65
2022-11-29T05:51:36.431Z,11.57
2022-11-29T05:54:10.312Z,7.65
2022-11-29T05:56:41.016Z,8.80
2022-11-29T05:58:59.684Z,10.32
2022-11-29T06:01:14.678Z,7.65
2022-11-29T06:03:25.123Z,8.18
2022-11-29T06:05:32.445Z,8.07
2022-11-29T06:07:51.778Z,9.25
2022-11-29T06:10:01.890Z,7.40
2022-11-29T06:12:16.907Z,7.75
2022-11-29T06:14:51.505Z,8.23
2022-11-29T06:17:16.343Z,7.18
2022-11-29T06:19:23.775Z,7.32
2022-11-29T06:21:40.792Z,11.82
2022-11-29T06:23:48.631Z,10.00
2022-11-29T06:25:53.416Z,8.75
2022-11-29T06:28:06.834Z,9.18
2022-11-29T06:30:10.181Z,7.87
2022-11-29T06:32:25.343Z,6.55
2022-11-29T06:34:36.056Z,6.82
2022-11-29T06:36:49.581Z,9.98
2022-11-29T06:38:51.482Z,8.38
2022-11-29T06:41:00.101Z,7.00
2022-11-29T06:43:04.014Z,11.65
2022-11-29T06:45:06.651Z,7.93
2022-11-29T06:47:44.649Z,10.73
2022-11-29T06:49:58.964Z,9.20
2022-11-29T06:54:18.791Z,12.23
2022-11-29T06:56:32.343Z,13.38
2022-11-29T06:59:00.523Z,12.27
2022-11-29T07:01:29.784Z,10.20
2022-11-29T07:03:46.629Z,13.88
2022-11-29T07:05:48.627Z,9.57
2022-11-29T07:07:53.393Z,12.45
2022-11-29T07:09:59.666Z,11.98
2022-11-29T07:12:01.687Z,10.65
2022-11-29T07:14:03.727Z,16.48
2022-11-29T07:16:16.262Z,8.55
2022-11-29T07:18:24.680Z,10.35
2022-11-29T07:21:07.257Z,8.35
2022-11-29T07:23:36.390Z,10.82
2022-11-29T07:25:49.073Z,9.43
2022-11-29T07:28:05.570Z,9.43
2022-11-29T07:30:13.949Z,8.82
2022-11-29T07:32:34.333Z,12.95
2022-11-29T07:34:49.960Z,10.15
2022-11-29T07:37:06.205Z,14.82
2022-11-29T07:39:29.469Z,12.38
2022-11-29T07:41:55.796Z,9.98
2022-11-29T07:44:04.074Z,8.85
2022-11-29T07:46:05.819Z,4.95
2022-11-29T07:48:07.721Z,5.20
2022-11-29T07:50:09.738Z,9.10
2022-11-29T07:52:15.702Z,8.90
2022-11-29T07:54:19.142Z,8.68
2022-11-29T07:56:20.799Z,8.68
2022-11-29T07:58:22.468Z,5.65
2022-11-29T08:00:24.451Z,6.13
2022-11-29T08:02:30.951Z,6.82
2022-11-29T08:04:32.761Z,6.43
2022-11-29T08:06:34.821Z,3.85
2022-11-29T08:08:42.236Z,5.45
2022-11-29T08:10:45.522Z,6.53
2022-11-29T08:12:50.301Z,5.90
2022-11-29T08:14:52.055Z,4.40
2022-11-29T08:16:53.610Z,3.85
2022-11-29T08:18:55.568Z,6.03
2022-11-29T08:20:57.120Z,5.22
2022-11-29T08:22:59.683Z,4.95
2022-11-29T08:25:01.583Z,5.03
2022-11-29T08:27:03.249Z,3.85
2022-11-29T08:29:04.900Z,5.75
2022-11-29T08:31:08.946Z,4.47
2022-11-29T08:33:10.637Z,5.93
2022-11-29T08:35:12.374Z,9.35
2022-11-29T08:37:14.269Z,3.85
2022-11-29T08:39:15.972Z,4.85
2022-11-29T08:41:17.787Z,5.90
2022-11-29T08:43:19.459Z,5.18
2022-11-29T08:45:21.117Z,6.85
2022-11-29T08:47:37.891Z,6.28
2022-11-29T08:49:59.572Z,11.38
2022-11-29T08:52:19.741Z,7.93
2022-11-29T08:54:21.355Z,4.88
2022-11-29T08:57:10.080Z,4.38
2022-11-29T08:58:45.716Z,3.97
2022-11-29T09:00:47.555Z,6.55
2022-11-29T09:02:49.361Z,4.13
2022-11-29T09:04:50.980Z,6.20
2022-11-29T09:06:52.701Z,5.22
2022-11-29T09:08:56.609Z,6.63
2022-11-29T09:12:59.665Z,6.93
2022-11-29T09:15:01.415Z,6.22
2022-11-29T09:17:03.054Z,5.90
2022-11-29T09:19:05.553Z,4.85
2022-11-29T09:21:12.369Z,10.70
2022-11-29T09:23:14.069Z,11.48
2022-11-29T09:25:15.722Z,5.82
2022-11-29T09:27:17.746Z,6.32
2022-11-29T09:29:19.476Z,11.93
2022-11-29T09:31:21.590Z,6.15
2022-11-29T09:33:23.284Z,5.55
2022-11-29T09:35:25.239Z,6.90
2022-11-29T09:37:26.964Z,7.40
2022-11-29T09:39:28.723Z,6.82
2022-11-29T09:41:46.988Z,8.43
2022-11-29T09:44:27.379Z,6.50
2022-11-29T09:46:46.884Z,9.10
2022-11-29T09:49:23.797Z,8.38
2022-11-29T09:51:50.086Z,8.73
2022-11-29T09:54:11.924Z,8.05
2022-11-29T09:56:29.307Z,8.10
2022-11-29T09:58:37.185Z,9.30
2022-11-29T10:00:46.783Z,13.48
2022-11-29T10:02:53.495Z,10.95
2022-11-29T10:05:00.675Z,7.43
2022-11-29T10:07:19.676Z,8.23
2022-11-29T10:09:38.754Z,10.10
2022-11-29T10:11:57.019Z,9.23
2022-11-29T10:14:21.567Z,12.18
2022-11-29T10:16:36.816Z,9.10
2022-11-29T10:18:45.420Z,7.72
2022-11-29T10:20:49.451Z,7.22
2022-11-29T10:22:57.039Z,9.57
2022-11-29T10:25:01.154Z,6.55
2022-11-29T10:27:05.493Z,10.45
2022-11-29T10:29:09.438Z,8.20
2022-11-29T10:33:31.358Z,9.55
2022-11-29T10:37:34.889Z,9.02
2022-11-29T10:39:43.926Z,9.45
2022-11-29T10:41:46.289Z,7.47
2022-11-29T10:43:48.764Z,7.97
2022-11-29T10:45:56.190Z,10.50
2022-11-29T10:48:12.236Z,7.25
2022-11-29T10:50:23.839Z,9.07
2022-11-29T10:52:25.586Z,8.32
2022-11-29T10:54:40.315Z,6.40
2022-11-29T10:56:44.063Z,6.22
2022-11-29T10:59:09.104Z,5.65
2022-11-29T11:01:13.569Z,7.35
2022-11-29T11:03:28.764Z,8.18
2022-11-29T11:05:30.593Z,5.18
2022-11-29T11:07:37.006Z,6.40
2022-11-29T11:09:47.580Z,7.53
2022-11-29T11:11:54.667Z,6.75
2022-11-29T11:14:06.126Z,13.90
2022-11-29T11:16:20.240Z,12.68
2022-11-29T11:18:24.327Z,8.45
2022-11-29T11:20:28.434Z,9.32
2022-11-29T11:22:31.386Z,8.85
2022-11-29T11:24:36.433Z,8.87
2022-11-29T11:26:45.098Z,12.13
2022-11-29T11:28:51.324Z,7.97
2022-11-29T11:31:13.133Z,7.93
2022-11-29T11:33:25.714Z,10.27
2022-11-29T11:35:27.401Z,6.97
2022-11-29T11:37:29.866Z,6.75
2022-11-29T11:39:32.280Z,9.90
2022-11-29T11:41:55.319Z,7.95
2022-11-29T11:43:59.174Z,10.90
2022-11-29T11:48:05.703Z,7.97
2022-11-29T11:50:13.355Z,7.65
2022-11-29T11:52:21.208Z,7.50
2022-11-29T11:54:23.135Z,5.53
2022-11-29T11:56:26.174Z,15.57
2022-11-29T11:58:57.546Z,11.27
2022-11-29T12:01:10.946Z,21.17
2022-11-29T12:03:50.132Z,7.87
2022-11-29T12:05:54.651Z,14.95
2022-11-29T12:08:07.719Z,8.77
2022-11-29T12:10:21.306Z,8.30
2022-11-29T12:12:33.008Z,8.93
2022-11-29T12:14:47.598Z,7.93
2022-11-29T12:16:50.552Z,7.97
2022-11-29T12:18:58.756Z,7.55
2022-11-29T12:21:05.647Z,6.13
2022-11-29T12:23:12.927Z,10.50
2022-11-29T12:25:18.995Z,5.70
2022-11-29T12:27:20.684Z,6.47
2022-11-29T12:29:22.924Z,6.32
2022-11-29T12:31:41.752Z,7.50
2022-11-29T12:33:58.881Z,6.30
2022-11-29T12:36:00.417Z,9.07
2022-11-29T12:38:33.707Z,6.93
2022-11-29T12:40:47.634Z,6.32
2022-11-29T12:43:04.169Z,6.78
2022-11-29T12:45:55.612Z,7.07
2022-11-29T12:48:27.574Z,8.88
2022-11-29T12:50:40.865Z,9.05
2022-11-29T12:52:56.183Z,8.63
2022-11-29T12:55:04.324Z,7.63
2022-11-29T12:57:18.053Z,5.57
2022-11-29T12:59:32.662Z,10.23
2022-11-29T13:01:45.516Z,10.30
2022-11-29T13:04:24.765Z,9.35
2022-11-29T13:06:40.838Z,11.85
2022-11-29T13:08:42.414Z,9.02
2022-11-29T13:10:49.888Z,12.43
2022-11-29T13:13:18.809Z,13.15
2022-11-29T13:15:23.931Z,9.27
2022-11-29T13:17:43.083Z,9.30
2022-11-29T13:19:52.257Z,9.43
2022-11-29T13:21:53.934Z,12.90
2022-11-29T13:24:12.469Z,12.75
2022-11-29T13:26:15.107Z,11.45
2022-11-29T13:28:28.497Z,13.10
2022-11-29T13:30:30.435Z,9.43
2022-11-29T13:32:40.367Z,11.85
2022-11-29T13:34:45.773Z,15.57
2022-11-29T13:37:19.214Z,7.35
2022-11-29T13:39:42.552Z,10.82
2022-11-29T13:41:49.394Z,12.85
2022-11-29T13:43:55.627Z,11.02
2022-11-29T13:46:09.438Z,10.00
2022-11-29T13:48:27.756Z,10.20
2022-11-29T13:50:37.173Z,10.38
2022-11-29T13:52:46.624Z,11.02
2022-11-29T13:54:48.250Z,13.27
2022-11-29T13:57:01.847Z,12.02
2022-11-29T13:59:09.233Z,10.50
2022-11-29T14:01:12.819Z,12.50
2022-11-29T14:03:23.413Z,10.27
2022-11-29T14:05:27.450Z,12.77
2022-11-29T14:07:29.346Z,12.85
2022-11-29T14:09:33.873Z,11.43
2022-11-29T14:12:03.460Z,13.95
2022-11-29T14:14:24.539Z,12.05
2022-11-29T14:16:32.234Z,12.13
2022-11-29T14:18:36.921Z,11.82
2022-11-29T14:20:44.157Z,8.45
2022-11-29T14:23:04.310Z,10.50
2022-11-29T14:25:49.933Z,8.40
2022-11-29T14:27:55.556Z,7.85
2022-11-29T14:29:58.582Z,9.50
2022-11-29T14:32:00.158Z,14.68
2022-11-29T14:34:09.022Z,8.02
2022-11-29T14:36:38.393Z,10.57
2022-11-29T14:39:04.325Z,7.50
2022-11-29T14:41:17.995Z,7.28
2022-11-29T14:43:29.342Z,8.30
2022-11-29T14:45:33.422Z,9.48
2022-11-29T14:47:38.301Z,14.13
2022-11-29T14:49:42.276Z,11.45
2022-11-29T14:54:12.274Z,10.35
2022-11-29T14:56:29.367Z,6.57
2022-11-29T14:58:30.953Z,6.80
2022-11-29T15:00:47.368Z,8.88
2022-11-29T15:02:52.800Z,7.53
2022-11-29T15:04:57.957Z,8.00
2022-11-29T15:07:00.483Z,6.20
2022-11-29T15:09:05.030Z,6.57
2022-11-29T15:11:34.460Z,7.60
2022-11-29T15:13:38.944Z,9.30
2022-11-29T15:16:02.985Z,6.65
2022-11-29T15:18:59.444Z,15.23
2022-11-29T15:21:15.990Z,7.53
2022-11-29T15:23:19.400Z,9.48
2022-11-29T15:25:27.633Z,5.43
2022-11-29T15:27:29.674Z,4.78
2022-11-29T15:29:32.092Z,5.90
2022-11-29T15:31:33.803Z,8.50
2022-11-29T15:33:40.178Z,10.00
2022-11-29T15:35:48.394Z,6.15
2022-11-29T15:37:50.318Z,4.70
2022-11-29T15:40:07.787Z,11.40
2022-11-29T15:42:14.410Z,6.22
2022-11-29T15:44:22.257Z,6.55
2022-11-29T15:46:26.879Z,7.80
2022-11-29T15:48:30.153Z,5.13
2022-11-29T15:50:33.155Z,4.82
2022-11-29T15:52:37.011Z,5.07
2022-11-29T15:57:02.110Z,4.85
2022-11-29T15:59:24.499Z,6.82
2022-11-29T16:01:26.251Z,5.85
2022-11-29T16:03:30.940Z,10.50
2022-11-29T16:05:34.511Z,7.20
2022-11-29T16:07:37.353Z,6.43
2022-11-29T16:09:42.180Z,10.57
2022-11-29T16:11:44.444Z,8.05
2022-11-29T16:14:12.382Z,7.22
2022-11-29T16:16:17.791Z,7.28
2022-11-29T16:18:22.274Z,7.05
2022-11-29T16:20:25.667Z,7.00
2022-11-29T16:22:27.295Z,7.00
2022-11-29T16:24:29.207Z,6.65
2022-11-29T16:26:34.491Z,6.32
2022-11-29T16:28:42.155Z,8.82
2022-11-29T16:30:43.850Z,5.30
2022-11-29T16:32:47.323Z,9.05
2022-11-29T16:34:49.237Z,9.52
2022-11-29T16:37:05.269Z,7.07
2022-11-29T16:39:27.314Z,8.05
2022-11-29T16:41:34.754Z,8.82
2022-11-29T16:43:56.095Z,9.65
2022-11-29T16:46:22.720Z,9.15
2022-11-29T16:48:26.915Z,10.05
2022-11-29T16:50:32.548Z,9.70
2022-11-29T16:52:34.280Z,6.72
2022-11-29T16:54:35.960Z,10.27
2022-11-29T16:56:38.756Z,12.48
2022-11-29T16:59:20.956Z,10.20
2022-11-29T17:01:27.294Z,10.00
2022-11-29T17:03:28.909Z,8.25
2022-11-29T17:05:30.753Z,7.13
2022-11-29T17:07:36.093Z,6.18
2022-11-29T17:09:38.240Z,5.60
2022-11-29T17:11:39.827Z,7.07
2022-11-29T17:13:41.487Z,6.07
2022-11-29T17:16:01.321Z,8.32
2022-11-29T17:18:02.936Z,7.70
2022-11-29T17:20:06.983Z,9.52
2022-11-29T17:22:08.912Z,6.57
2022-11-29T17:24:13.654Z,3.65
2022-11-29T17:26:15.792Z,6.15
2022-11-29T17:28:17.389Z,5.18
2022-11-29T17:30:19.105Z,4.93
2022-11-29T17:32:26.244Z,4.93
2022-11-29T17:34:28.380Z,5.13
2022-11-29T17:36:30.770Z,7.85
2022-11-29T17:38:32.497Z,5.60
2022-11-29T17:40:34.212Z,4.80
2022-11-29T17:42:35.797Z,4.95
2022-11-29T17:44:37.546Z,4.90
2022-11-29T17:46:39.460Z,4.78
2022-11-29T17:48:42.779Z,4.43
2022-11-29T17:50:44.443Z,5.82
2022-11-29T17:52:46.131Z,6.88
2022-11-29T17:54:47.859Z,3.80
2022-11-29T17:56:50.071Z,3.25
2022-11-29T17:58:56.076Z,6.13
2022-11-29T18:01:13.095Z,6.90
2022-11-29T18:03:14.713Z,6.53
2022-11-29T18:05:16.465Z,5.03
2022-11-29T18:07:18.470Z,4.70
2022-11-29T18:09:20.265Z,5.93
2022-11-29T18:11:26.527Z,7.10
2022-11-29T18:13:28.117Z,4.88
2022-11-29T18:15:29.776Z,6.18
2022-11-29T18:17:31.633Z,7.18
2022-11-29T18:19:34.022Z,6.22
2022-11-29T18:21:35.880Z,5.00
2022-11-29T18:23:39.776Z,5.78
2022-11-29T18:27:42.946Z,9.27
2022-11-29T18:29:44.509Z,6.43
2022-11-29T18:31:46.580Z,9.50
2022-11-29T18:33:50.962Z,8.27
2022-11-29T18:35:52.603Z,4.72
2022-11-29T18:38:14.548Z,6.78
2022-11-29T18:40:17.190Z,7.50
2022-11-29T18:42:18.779Z,7.32
2022-11-29T18:44:29.711Z,6.93
2022-11-29T18:46:32.922Z,8.82
2022-11-29T18:48:35.068Z,8.68
2022-11-29T18:50:36.674Z,6.63
2022-11-29T18:52:40.828Z,8.88
2022-11-29T18:54:42.525Z,11.27
2022-11-29T18:56:44.979Z,9.10
2022-11-29T18:58:47.989Z,10.70
2022-11-29T19:00:51.414Z,12.37
2022-11-29T19:02:53.462Z,10.18
2022-11-29T19:04:55.185Z,11.80
2022-11-29T19:06:56.842Z,12.52
2022-11-29T19:08:58.648Z,9.45
2022-11-29T19:11:11.227Z,8.63
2022-11-29T19:13:12.829Z,9.65
2022-11-29T19:15:14.644Z,8.48
2022-11-29T19:17:16.371Z,7.47
2022-11-29T19:19:19.077Z,10.15
2022-11-29T19:21:22.262Z,7.57
2022-11-29T19:23:23.946Z,9.82
2022-11-29T19:25:25.620Z,6.78
2022-11-29T19:27:27.216Z,10.43
2022-11-29T19:29:29.157Z,8.02
2022-11-29T19:31:30.823Z,9.27
2022-11-29T19:33:37.117Z,5.47
2022-11-29T19:35:38.827Z,5.63
2022-11-29T19:37:41.989Z,7.65
2022-11-29T19:39:44.516Z,9.70
2022-11-29T19:41:47.922Z,5.38
2022-11-29T19:43:50.232Z,7.55
2022-11-29T19:45:51.930Z,4.63
2022-11-29T19:47:53.558Z,5.47
2022-11-29T19:50:00.795Z,7.97
2022-11-29T19:52:04.091Z,4.75
2022-11-29T19:54:07.188Z,8.38
2022-11-29T19:56:11.959Z,6.22
2022-11-29T19:58:13.566Z,4.57
2022-11-29T20:00:15.832Z,5.03
2022-11-29T20:02:17.476Z,5.60
2022-11-29T20:04:19.226Z,6.35
2022-11-29T20:06:21.117Z,4.90
2022-11-29T20:08:23.115Z,5.07
2022-11-29T20:10:25.736Z,9.27
2022-11-29T20:12:27.368Z,5.18
2022-11-29T20:14:29.265Z,6.03
2022-11-29T20:16:31.524Z,4.28
2022-11-29T20:18:33.767Z,4.10
2022-11-29T20:20:35.823Z,4.18
2022-11-29T20:22:37.793Z,3.75
2022-11-29T20:24:45.089Z,5.05
2022-11-29T20:26:49.105Z,4.88
2022-11-29T20:28:51.170Z,4.63
2022-11-29T20:30:53.144Z,6.07
2022-11-29T20:32:55.035Z,5.57
2022-11-29T20:34:57.392Z,3.08
2022-11-29T20:37:10.423Z,3.60
2022-11-29T20:39:50.029Z,4.80
2022-11-29T20:41:54.599Z,4.75
2022-11-29T20:43:59.003Z,7.93
2022-11-29T20:46:00.789Z,7.85
2022-11-29T20:48:11.258Z,5.35
2022-11-29T20:50:24.716Z,6.63
2022-11-29T20:52:47.933Z,5.38
2022-11-29T20:54:49.464Z,4.22
2022-11-29T20:56:51.338Z,5.22
2022-11-29T20:58:52.869Z,4.20
2022-11-29T21:00:55.304Z,5.30
2022-11-29T21:02:56.909Z,6.88
2022-11-29T21:04:58.501Z,6.00
2022-11-29T21:07:00.120Z,4.38
2022-11-29T21:09:02.186Z,3.28
2022-11-29T21:11:06.711Z,4.60
2022-11-29T21:13:10.886Z,4.50
2022-11-29T21:15:14.181Z,2.97
2022-11-29T21:17:16.189Z,3.67
2022-11-29T21:19:24.784Z,3.60
2022-11-29T21:21:38.279Z,5.07
2022-11-29T21:24:03.688Z,2.75
2022-11-29T21:26:08.560Z,2.50
2022-11-29T21:28:12.768Z,3.25
2022-11-29T21:30:20.278Z,3.58
2022-11-29T21:32:24.042Z,3.90
2022-11-29T21:34:25.637Z,2.78
2022-11-29T21:36:27.810Z,5.97
2022-11-29T21:38:29.528Z,2.65
2022-11-29T21:40:31.132Z,2.70
2022-11-29T21:42:32.775Z,3.25
2022-11-29T21:44:34.339Z,4.00
2022-11-29T21:46:36.284Z,3.47
2022-11-29T21:48:38.411Z,4.68
2022-11-29T21:50:40.059Z,9.05
2022-11-29T21:52:41.796Z,5.00
2022-11-29T21:54:43.810Z,6.65
2022-11-29T21:56:45.654Z,7.22
2022-11-29T21:58:47.274Z,5.82
2022-11-29T22:00:49.214Z,7.82
2022-11-29T22:02:51.227Z,5.63
2022-11-29T22:04:52.896Z,6.53
2022-11-29T22:06:54.811Z,7.07
2022-11-29T22:08:57.009Z,6.30
2022-11-29T22:11:12.115Z,7.35
2022-11-29T22:13:13.782Z,6.65
2022-11-29T22:15:19.032Z,5.45
2022-11-29T22:17:23.272Z,3.90
2022-11-29T22:19:35.250Z,4.63
2022-11-29T22:21:36.915Z,4.28
2022-11-29T22:23:38.513Z,4.95
2022-11-29T22:25:40.204Z,3.92
2022-11-29T22:27:41.846Z,4.82
2022-11-29T22:29:43.458Z,4.40
2022-11-29T22:31:47.215Z,4.00
2022-11-29T22:33:48.873Z,5.53
2022-11-29T22:35:50.469Z,5.22
2022-11-29T22:37:52.613Z,3.95
2022-11-29T22:39:54.289Z,5.57
2022-11-29T22:41:56.096Z,5.72
2022-11-29T22:43:57.889Z,5.50
2022-11-29T22:46:08.704Z,5.93
2022-11-29T22:48:10.281Z,5.03
2022-11-29T22:50:12.246Z,6.90
2022-11-29T22:52:13.880Z,6.47
2022-11-29T22:54:16.527Z,5.65
2022-11-29T22:56:18.819Z,5.30
2022-11-29T22:58:20.503Z,9.10
2022-11-29T23:00:22.185Z,6.53
2022-11-29T23:02:23.904Z,7.60
2022-11-29T23:04:25.519Z,5.72
2022-11-29T23:06:30.167Z,6.63
2022-11-29T23:08:32.447Z,6.07
2022-11-29T23:10:34.055Z,6.13
2022-11-29T23:12:35.883Z,7.88
2022-11-29T23:14:37.572Z,6.03
2022-11-29T23:16:39.388Z,7.20
2022-11-29T23:18:46.160Z,7.50
2022-11-29T23:20:47.751Z,6.82
2022-11-29T23:22:49.361Z,6.60
2022-11-29T23:24:51.020Z,6.65
2022-11-29T23:26:52.602Z,7.43
2022-11-29T23:28:54.799Z,7.57
2022-11-29T23:30:56.506Z,7.28
2022-11-29T23:32:58.035Z,7.15
2022-11-29T23:34:59.600Z,6.57
2022-11-29T23:37:01.445Z,8.73
2022-11-29T23:39:03.139Z,9.00
2022-11-29T23:41:06.122Z,8.20
2022-11-29T23:43:07.738Z,6.57
2022-11-29T23:45:09.776Z,7.40
2022-11-29T23:47:11.444Z,7.00
2022-11-29T23:49:13.200Z,6.05
2022-11-29T23:51:15.020Z,7.65
2022-11-29T23:53:19.189Z,7.38
2022-11-29T23:55:22.122Z,8.82
2022-11-29T23:57:23.894Z,8.87
2022-11-29T23:59:25.524Z,8.10
